Time,TemperatureF,DewpointF,PressureIn,WindDirection,WindDirectionDegrees,WindSpeedMPH,WindSpeedGustMPH,Humidity,HourlyPrecipIn,Conditions,Clouds,dailyrainin,SoftwareType,DateUTC
2013-07-09 00:01:00,67.0,65.8,29.95,East,84,0.0,7.0,96,0.00,,,0.00,Wunderground v.1.15,2013-07-09 04:01:00,
2013-07-09 00:02:00,67.0,65.8,29.95,East,84,0.0,7.0,96,0.00,,,0.00,Wunderground v.1.15,2013-07-09 04:02:00,
2013-07-09 00:03:00,67.0,65.8,29.95,East,84,0.0,7.0,96,0.00,,,0.00,Wunderground v.1.15,2013-07-09 04:03:00,
2013-07-09 00:04:00,66.9,65.7,29.95,East,84,0.0,7.0,96,0.00,,,0.00,Wunderground v.1.15,2013-07-09 04:04:00,
2013-07-09 00:10:00,66.8,65.6,29.95,East,84,0.0,7.0,96,0.00,,,0.00,Wunderground v.1.15,2013-07-09 04:10:00,
2013-07-09 00:11:00,66.8,65.6,29.95,East,84,0.0,7.0,96,0.00,,,0.00,Wunderground v.1.15,2013-07-09 04:11:00,
2013-07-09 00:16:00,66.9,65.7,29.95,East,84,0.0,7.0,96,0.00,,,0.00,Wunderground v.1.15,2013-07-09 04:16:00,
2013-07-09 00:22:00,66.8,65.6,29.95,East,84,0.0,7.0,96,0.00,,,0.00,Wunderground v.1.15,2013-07-09 04:22:00,
2013-07-09 00:28:00,66.7,65.5,29.95,East,84,0.0,7.0,96,0.00,,,0.00,Wunderground v.1.15,2013-07-09 04:28:00,
2013-07-09 00:33:00,66.7,65.5,29.95,East,84,0.0,7.0,96,0.00,,,0.00,Wunderground v.1.15,2013-07-09 04:33:00,
2013-07-09 00:39:00,66.7,65.5,29.95,East,84,0.0,7.0,96,0.00,,,0.00,Wunderground v.1.15,2013-07-09 04:39:00,
2013-07-09 00:44:00,66.7,65.5,29.95,East,84,0.0,7.0,96,0.00,,,0.00,Wunderground v.1.15,2013-07-09 04:44:00,
2013-07-09 00:50:00,66.7,65.5,29.95,East,84,0.0,7.0,96,0.00,,,0.00,Wunderground v.1.15,2013-07-09 04:50:00,
2013-07-09 00:55:00,66.7,65.5,29.95,East,84,0.0,7.0,96,0.00,,,0.00,Wunderground v.1.15,2013-07-09 04:55:00,
2013-07-09 01:00:00,66.7,65.5,29.95,East,84,0.0,0.0,96,0.00,,,0.00,Wunderground v.1.15,2013-07-09 05:00:00,
2013-07-09 01:06:00,67.0,65.8,29.95,ENE,65,1.0,3.0,96,0.00,,,0.00,Wunderground v.1.15,2013-07-09 05:06:00,
2013-07-09 01:12:00,67.1,65.9,29.95,ENE,62,2.0,2.0,96,0.00,,,0.00,Wunderground v.1.15,2013-07-09 05:12:00,
2013-07-09 01:17:00,66.9,65.7,29.96,ENE,62,1.0,2.0,96,0.00,,,0.00,Wunderground v.1.15,2013-07-09 05:17:00,
2013-07-09 01:22:00,66.6,65.1,29.96,ENE,62,0.0,0.0,95,0.00,,,0.00,Wunderground v.1.15,2013-07-09 05:22:00,
2013-07-09 01:28:00,66.3,65.1,29.96,ENE,62,0.0,0.0,96,0.00,,,0.00,Wunderground v.1.15,2013-07-09 05:28:00,
2013-07-09 01:34:00,66.2,65.0,29.96,ENE,62,0.0,0.0,96,0.00,,,0.00,Wunderground v.1.15,2013-07-09 05:34:00,
2013-07-09 01:40:00,66.2,65.0,29.96,ENE,62,0.0,0.0,96,0.00,,,0.00,Wunderground v.1.15,2013-07-09 05:40:00,
2013-07-09 01:45:00,66.3,65.1,29.96,ENE,62,0.0,0.0,96,0.00,,,0.00,Wunderground v.1.15,2013-07-09 05:45:00,
2013-07-09 01:51:00,66.1,64.9,29.96,ENE,62,0.0,0.0,96,0.00,,,0.00,Wunderground v.1.15,2013-07-09 05:51:00,
2013-07-09 01:56:00,66.3,65.1,29.96,ENE,62,0.0,0.0,96,0.00,,,0.00,Wunderground v.1.15,2013-07-09 05:56:00,
2013-07-09 02:02:00,66.4,65.5,29.95,ENE,62,0.0,0.0,97,0.00,,,0.00,Wunderground v.1.15,2013-07-09 06:02:00,
2013-07-09 02:07:00,66.5,65.6,29.95,ENE,62,0.0,0.0,97,0.00,,,0.00,Wunderground v.1.15,2013-07-09 06:07:00,
2013-07-09 02:13:00,66.8,65.6,29.95,ENE,62,0.0,0.0,96,0.00,,,0.00,Wunderground v.1.15,2013-07-09 06:13:00,
2013-07-09 02:19:00,66.9,65.7,29.95,ENE,62,0.0,0.0,96,0.00,,,0.00,Wunderground v.1.15,2013-07-09 06:19:00,
2013-07-09 02:24:00,66.9,65.7,29.95,ENE,62,0.0,0.0,96,0.00,,,0.00,Wunderground v.1.15,2013-07-09 06:24:00,
2013-07-09 02:29:00,66.9,65.7,29.95,ENE,62,0.0,0.0,96,0.00,,,0.00,Wunderground v.1.15,2013-07-09 06:29:00,
2013-07-09 02:35:00,66.6,65.1,29.95,ENE,62,0.0,0.0,95,0.00,,,0.00,Wunderground v.1.15,2013-07-09 06:35:00,
2013-07-09 02:40:00,66.5,65.3,29.95,ENE,62,0.0,0.0,96,0.00,,,0.00,Wunderground v.1.15,2013-07-09 06:40:00,
2013-07-09 02:46:00,66.5,65.3,29.95,ENE,62,0.0,0.0,96,0.00,,,0.00,Wunderground v.1.15,2013-07-09 06:46:00,
2013-07-09 02:52:00,66.0,64.5,29.95,ENE,62,0.0,1.0,95,0.00,,,0.00,Wunderground v.1.15,2013-07-09 06:52:00,
2013-07-09 02:57:00,65.8,64.6,29.95,ENE,62,0.0,1.0,96,0.00,,,0.00,Wunderground v.1.15,2013-07-09 06:57:00,
2013-07-09 03:03:00,65.9,65.0,29.95,ENE,62,0.0,0.0,97,0.00,,,0.00,Wunderground v.1.15,2013-07-09 07:03:00,
2013-07-09 03:08:00,66.1,65.2,29.95,ENE,62,0.0,2.0,97,0.00,,,0.00,Wunderground v.1.15,2013-07-09 07:08:00,
2013-07-09 03:14:00,66.3,65.4,29.95,ENE,62,1.0,1.0,97,0.00,,,0.00,Wunderground v.1.15,2013-07-09 07:14:00,
2013-07-09 03:19:00,66.3,65.4,29.95,ENE,62,0.0,1.0,97,0.00,,,0.00,Wunderground v.1.15,2013-07-09 07:19:00,
2013-07-09 03:25:00,66.3,65.4,29.94,ENE,62,0.0,0.0,97,0.00,,,0.00,Wunderground v.1.15,2013-07-09 07:25:00,
2013-07-09 03:31:00,66.3,65.4,29.94,ENE,62,0.0,0.0,97,0.00,,,0.00,Wunderground v.1.15,2013-07-09 07:31:00,
2013-07-09 03:36:00,66.3,65.1,29.94,ENE,62,0.0,0.0,96,0.00,,,0.00,Wunderground v.1.15,2013-07-09 07:36:00,
2013-07-09 03:42:00,66.3,65.1,29.95,ENE,62,0.0,0.0,96,0.00,,,0.00,Wunderground v.1.15,2013-07-09 07:42:00,
2013-07-09 03:47:00,66.1,64.9,29.95,ENE,62,0.0,0.0,96,0.00,,,0.00,Wunderground v.1.15,2013-07-09 07:47:00,
2013-07-09 03:53:00,65.7,64.5,29.94,ENE,62,0.0,0.0,96,0.00,,,0.00,Wunderground v.1.15,2013-07-09 07:53:00,
2013-07-09 03:59:00,65.6,64.7,29.94,ENE,62,0.0,0.0,97,0.00,,,0.00,Wunderground v.1.15,2013-07-09 07:59:00,
2013-07-09 04:04:00,65.7,64.8,29.95,ENE,62,0.0,0.0,97,0.00,,,0.00,Wunderground v.1.15,2013-07-09 08:04:00,
2013-07-09 04:10:00,65.7,64.8,29.95,ENE,62,0.0,0.0,97,0.00,,,0.00,Wunderground v.1.15,2013-07-09 08:10:00,
2013-07-09 04:15:00,65.7,64.8,29.95,ENE,63,0.0,2.0,97,0.00,,,0.00,Wunderground v.1.15,2013-07-09 08:15:00,
2013-07-09 04:21:00,65.7,64.8,29.95,ENE,63,1.0,1.0,97,0.00,,,0.00,Wunderground v.1.15,2013-07-09 08:21:00,
2013-07-09 04:27:00,65.7,64.8,29.96,ENE,63,0.0,1.0,97,0.00,,,0.00,Wunderground v.1.15,2013-07-09 08:27:00,
2013-07-09 04:32:00,65.7,64.8,29.96,ENE,63,0.0,0.0,97,0.00,,,0.00,Wunderground v.1.15,2013-07-09 08:32:00,
2013-07-09 04:38:00,65.7,64.8,29.96,ENE,63,0.0,1.0,97,0.00,,,0.00,Wunderground v.1.15,2013-07-09 08:38:00,
2013-07-09 04:43:00,65.8,64.9,29.95,ENE,63,0.0,1.0,97,0.00,,,0.00,Wunderground v.1.15,2013-07-09 08:43:00,
2013-07-09 04:49:00,65.8,64.9,29.95,ENE,59,0.0,2.0,97,0.00,,,0.00,Wunderground v.1.15,2013-07-09 08:49:00,
2013-07-09 04:55:00,65.9,65.0,29.95,NE,47,2.0,4.0,97,0.00,,,0.00,Wunderground v.1.15,2013-07-09 08:55:00,
2013-07-09 05:00:00,65.9,65.0,29.95,NE,46,3.0,3.0,97,0.00,,,0.00,Wunderground v.1.15,2013-07-09 09:00:00,
2013-07-09 05:06:00,65.8,64.9,29.96,NE,53,2.0,3.0,97,0.00,,,0.00,Wunderground v.1.15,2013-07-09 09:06:00,
2013-07-09 05:12:00,65.6,64.7,29.96,NE,54,1.0,1.0,97,0.00,,,0.00,Wunderground v.1.15,2013-07-09 09:12:00,
2013-07-09 05:17:00,65.7,64.8,29.96,NE,54,0.0,1.0,97,0.00,,,0.00,Wunderground v.1.15,2013-07-09 09:17:00,
2013-07-09 05:23:00,65.8,64.9,29.97,NE,54,0.0,0.0,97,0.00,,,0.00,Wunderground v.1.15,2013-07-09 09:23:00,
2013-07-09 05:29:00,65.9,65.0,29.97,NE,54,0.0,0.0,97,0.00,,,0.00,Wunderground v.1.15,2013-07-09 09:29:00,
2013-07-09 05:34:00,65.9,65.0,29.97,NE,54,0.0,0.0,97,0.00,,,0.00,Wunderground v.1.15,2013-07-09 09:34:00,
2013-07-09 05:40:00,65.9,65.0,29.97,NE,54,0.0,0.0,97,0.00,,,0.00,Wunderground v.1.15,2013-07-09 09:40:00,
2013-07-09 05:45:00,65.9,65.0,29.97,NE,54,0.0,0.0,97,0.00,,,0.00,Wunderground v.1.15,2013-07-09 09:45:00,
2013-07-09 05:51:00,65.8,64.9,29.97,NE,54,0.0,0.0,97,0.00,,,0.00,Wunderground v.1.15,2013-07-09 09:51:00,
2013-07-09 05:56:00,65.9,65.0,29.97,NE,54,0.0,0.0,97,0.00,,,0.00,Wunderground v.1.15,2013-07-09 09:56:00,
2013-07-09 06:02:00,66.3,65.4,29.97,NE,54,0.0,0.0,97,0.00,,,0.00,Wunderground v.1.15,2013-07-09 10:02:00,
2013-07-09 06:07:00,66.5,65.6,29.97,NE,54,0.0,0.0,97,0.00,,,0.00,Wunderground v.1.15,2013-07-09 10:07:00,
2013-07-09 06:13:00,66.7,65.8,29.98,NE,54,0.0,0.0,97,0.00,,,0.00,Wunderground v.1.15,2013-07-09 10:13:00,
2013-07-09 06:19:00,66.8,65.9,29.98,NE,54,0.0,0.0,97,0.00,,,0.00,Wunderground v.1.15,2013-07-09 10:19:00,
2013-07-09 06:24:00,66.8,65.9,29.98,NE,54,0.0,0.0,97,0.00,,,0.00,Wunderground v.1.15,2013-07-09 10:24:00,
2013-07-09 06:30:00,67.0,66.1,29.98,NE,54,0.0,0.0,97,0.00,,,0.00,Wunderground v.1.15,2013-07-09 10:30:00,
2013-07-09 06:35:00,67.1,66.2,29.99,NE,54,0.0,0.0,97,0.00,,,0.00,Wunderground v.1.15,2013-07-09 10:35:00,
2013-07-09 06:41:00,67.4,66.5,29.99,NE,54,0.0,0.0,97,0.00,,,0.00,Wunderground v.1.15,2013-07-09 10:41:00,
2013-07-09 06:47:00,67.5,66.6,29.99,NE,54,0.0,0.0,97,0.00,,,0.00,Wunderground v.1.15,2013-07-09 10:47:00,
2013-07-09 06:52:00,67.5,66.6,29.99,NE,54,0.0,0.0,97,0.00,,,0.00,Wunderground v.1.15,2013-07-09 10:52:00,
2013-07-09 06:58:00,67.5,66.6,29.99,NE,54,0.0,0.0,97,0.00,,,0.00,Wunderground v.1.15,2013-07-09 10:58:00,
2013-07-09 07:04:00,67.7,66.8,29.99,NE,54,0.0,0.0,97,0.00,,,0.00,Wunderground v.1.15,2013-07-09 11:04:00,
2013-07-09 07:09:00,67.9,67.0,29.99,NE,54,0.0,0.0,97,0.00,,,0.00,Wunderground v.1.15,2013-07-09 11:09:00,
2013-07-09 07:14:00,68.0,67.1,29.99,NE,54,0.0,0.0,97,0.00,,,0.00,Wunderground v.1.15,2013-07-09 11:14:00,
2013-07-09 07:20:00,68.3,67.4,29.99,NE,54,0.0,0.0,97,0.00,,,0.00,Wunderground v.1.15,2013-07-09 11:20:00,
2013-07-09 07:26:00,68.9,68.0,29.99,NE,54,0.0,0.0,97,0.00,,,0.00,Wunderground v.1.15,2013-07-09 11:26:00,
2013-07-09 07:31:00,69.2,68.3,29.99,NE,54,0.0,0.0,97,0.00,,,0.00,Wunderground v.1.15,2013-07-09 11:31:00,
2013-07-09 07:37:00,69.5,68.6,30.00,NE,54,0.0,0.0,97,0.00,,,0.00,Wunderground v.1.15,2013-07-09 11:37:00,
2013-07-09 07:42:00,69.9,69.0,30.00,NE,54,0.0,0.0,97,0.00,,,0.00,Wunderground v.1.15,2013-07-09 11:42:00,
2013-07-09 07:47:00,70.3,69.4,29.99,NE,54,0.0,0.0,97,0.00,,,0.00,Wunderground v.1.15,2013-07-09 11:47:00,
2013-07-09 07:53:00,70.6,69.1,30.00,NE,54,0.0,0.0,95,0.00,,,0.00,Wunderground v.1.15,2013-07-09 11:53:00,
2013-07-09 07:59:00,70.8,69.3,30.00,NE,54,0.0,0.0,95,0.00,,,0.00,Wunderground v.1.15,2013-07-09 11:59:00,
2013-07-09 08:04:00,70.9,69.4,30.00,NE,54,0.0,0.0,95,0.00,,,0.00,Wunderground v.1.15,2013-07-09 12:04:00,
2013-07-09 08:10:00,70.7,68.9,30.00,NE,54,0.0,0.0,94,0.00,,,0.00,Wunderground v.1.15,2013-07-09 12:10:00,
2013-07-09 08:16:00,70.8,69.3,30.00,NE,54,0.0,0.0,95,0.00,,,0.00,Wunderground v.1.15,2013-07-09 12:16:00,
2013-07-09 08:21:00,70.8,69.3,30.00,NE,54,0.0,0.0,95,0.00,,,0.00,Wunderground v.1.15,2013-07-09 12:21:00,
2013-07-09 08:27:00,70.8,69.3,30.00,NE,54,0.0,0.0,95,0.00,,,0.00,Wunderground v.1.15,2013-07-09 12:27:00,
2013-07-09 08:32:00,70.7,69.2,30.00,NE,54,0.0,0.0,95,0.00,,,0.00,Wunderground v.1.15,2013-07-09 12:32:00,
2013-07-09 08:38:00,71.1,69.9,30.00,NE,54,0.0,0.0,96,0.00,,,0.00,Wunderground v.1.15,2013-07-09 12:38:00,
2013-07-09 08:44:00,71.9,70.4,30.00,NE,54,0.0,0.0,95,0.00,,,0.00,Wunderground v.1.15,2013-07-09 12:44:00,
2013-07-09 08:49:00,71.8,69.7,30.00,NE,54,0.0,1.0,93,0.00,,,0.00,Wunderground v.1.15,2013-07-09 12:49:00,
2013-07-09 08:55:00,72.0,69.9,30.00,NE,54,0.0,0.0,93,0.00,,,0.00,Wunderground v.1.15,2013-07-09 12:55:00,
2013-07-09 09:01:00,72.4,70.6,29.99,NE,54,0.0,0.0,94,0.00,,,0.00,Wunderground v.1.15,2013-07-09 13:01:00,
2013-07-09 09:06:00,72.9,70.8,29.99,NE,54,0.0,0.0,93,0.00,,,0.00,Wunderground v.1.15,2013-07-09 13:06:00,
2013-07-09 09:12:00,73.5,71.4,29.99,NE,54,0.0,0.0,93,0.00,,,0.00,Wunderground v.1.15,2013-07-09 13:12:00,
2013-07-09 09:17:00,74.2,72.4,29.99,NE,54,0.0,0.0,94,0.00,,,0.00,Wunderground v.1.15,2013-07-09 13:17:00,
2013-07-09 09:23:00,74.5,71.4,29.99,NE,54,0.0,0.0,90,0.00,,,0.00,Wunderground v.1.15,2013-07-09 13:23:00,
2013-07-09 09:29:00,75.3,72.2,29.99,NE,54,0.0,0.0,90,0.00,,,0.00,Wunderground v.1.15,2013-07-09 13:29:00,
2013-07-09 09:34:00,76.0,71.8,29.99,NE,54,0.0,0.0,87,0.00,,,0.00,Wunderground v.1.15,2013-07-09 13:34:00,
2013-07-09 09:40:00,76.1,71.6,29.99,NE,54,0.0,0.0,86,0.00,,,0.00,Wunderground v.1.15,2013-07-09 13:40:00,
2013-07-09 09:46:00,76.0,72.2,29.99,NE,54,0.0,0.0,88,0.00,,,0.00,Wunderground v.1.15,2013-07-09 13:46:00,
2013-07-09 09:51:00,76.3,72.5,29.99,NE,54,0.0,0.0,88,0.00,,,0.00,Wunderground v.1.15,2013-07-09 13:51:00,
2013-07-09 09:56:00,75.9,71.1,29.99,NE,53,1.0,1.0,85,0.00,,,0.00,Wunderground v.1.15,2013-07-09 13:56:00,
2013-07-09 10:02:00,76.0,71.8,29.99,NE,53,0.0,1.0,87,0.00,,,0.00,Wunderground v.1.15,2013-07-09 14:02:00,
2013-07-09 10:07:00,77.0,74.2,29.99,NE,53,0.0,1.0,91,0.00,,,0.00,Wunderground v.1.15,2013-07-09 14:07:00,
2013-07-09 10:13:00,77.6,73.4,29.99,NE,53,0.0,0.0,87,0.00,,,0.00,Wunderground v.1.15,2013-07-09 14:13:00,
2013-07-09 10:18:00,78.0,73.5,29.99,East,101,0.0,2.0,86,0.00,,,0.00,Wunderground v.1.15,2013-07-09 14:18:00,
2013-07-09 10:24:00,78.3,73.1,29.99,NNE,12,1.0,2.0,84,0.00,,,0.00,Wunderground v.1.15,2013-07-09 14:24:00,
2013-07-09 10:30:00,78.7,72.7,29.99,ENE,68,1.0,1.0,82,0.00,,,0.00,Wunderground v.1.15,2013-07-09 14:30:00,
2013-07-09 10:35:00,79.1,73.1,29.99,East,80,1.0,2.0,82,0.00,,,0.00,Wunderground v.1.15,2013-07-09 14:35:00,
2013-07-09 10:41:00,79.2,72.9,29.99,East,80,1.0,1.0,81,0.00,,,0.00,Wunderground v.1.15,2013-07-09 14:41:00,
2013-07-09 10:46:00,79.1,72.4,29.99,East,83,0.0,1.0,80,0.00,,,0.00,Wunderground v.1.15,2013-07-09 14:46:00,
2013-07-09 10:52:00,79.4,73.1,29.99,East,83,0.0,2.0,81,0.00,,,0.00,Wunderground v.1.15,2013-07-09 14:52:00,
2013-07-09 10:58:00,79.6,73.3,29.99,NE,46,0.0,2.0,81,0.00,,,0.00,Wunderground v.1.15,2013-07-09 14:58:00,
2013-07-09 11:04:00,79.4,72.7,29.99,NE,43,1.0,1.0,80,0.00,,,0.00,Wunderground v.1.15,2013-07-09 15:04:00,
2013-07-09 11:09:00,79.8,73.4,29.99,NE,48,0.0,1.0,81,0.00,,,0.00,Wunderground v.1.15,2013-07-09 15:09:00,
2013-07-09 11:15:00,80.1,73.0,29.99,East,96,1.0,1.0,79,0.00,,,0.00,Wunderground v.1.15,2013-07-09 15:15:00,
2013-07-09 11:21:00,80.5,72.6,29.99,East,96,0.0,0.0,77,0.00,,,0.00,Wunderground v.1.15,2013-07-09 15:21:00,
2013-07-09 11:27:00,81.1,73.6,29.99,ESE,108,0.0,2.0,78,0.00,,,0.00,Wunderground v.1.15,2013-07-09 15:27:00,
2013-07-09 11:33:00,81.9,75.5,29.99,NW,309,0.0,3.0,81,0.00,,,0.00,Wunderground v.1.15,2013-07-09 15:33:00,
2013-07-09 11:38:00,81.8,74.3,29.99,NW,315,1.0,3.0,78,0.00,,,0.00,Wunderground v.1.15,2013-07-09 15:38:00,
2013-07-09 11:44:00,81.7,74.2,29.98,NW,319,1.0,3.0,78,0.00,,,0.00,Wunderground v.1.15,2013-07-09 15:44:00,
2013-07-09 11:49:00,81.8,73.5,29.98,NW,319,0.0,3.0,76,0.00,,,0.00,Wunderground v.1.15,2013-07-09 15:49:00,
2013-07-09 11:55:00,81.9,74.7,29.98,NW,319,0.0,0.0,79,0.00,,,0.00,Wunderground v.1.15,2013-07-09 15:55:00,
2013-07-09 12:01:00,82.4,73.7,29.98,NW,317,0.0,0.0,75,0.00,,,0.00,Wunderground v.1.15,2013-07-09 16:01:00,
2013-07-09 12:06:00,82.6,74.7,29.98,NW,317,0.0,0.0,77,0.00,,,0.00,Wunderground v.1.15,2013-07-09 16:06:00,
2013-07-09 12:12:00,82.0,73.7,29.98,WSW,253,1.0,2.0,76,0.00,,,0.00,Wunderground v.1.15,2013-07-09 16:12:00,
2013-07-09 12:17:00,81.8,73.5,29.98,WSW,253,1.0,2.0,76,0.00,,,0.00,Wunderground v.1.15,2013-07-09 16:17:00,
2013-07-09 12:23:00,81.9,74.0,29.98,WSW,253,0.0,0.0,77,0.00,,,0.00,Wunderground v.1.15,2013-07-09 16:23:00,
2013-07-09 12:29:00,82.1,74.6,29.98,WSW,253,0.0,0.0,78,0.00,,,0.00,Wunderground v.1.15,2013-07-09 16:29:00,
2013-07-09 12:34:00,82.3,74.4,29.97,WSW,253,0.0,0.0,77,0.00,,,0.00,Wunderground v.1.15,2013-07-09 16:34:00,
2013-07-09 12:40:00,82.6,74.3,29.97,WSW,253,0.0,0.0,76,0.00,,,0.00,Wunderground v.1.15,2013-07-09 16:40:00,
2013-07-09 12:45:00,83.1,75.1,29.97,WSW,253,0.0,0.0,77,0.00,,,0.00,Wunderground v.1.15,2013-07-09 16:45:00,
2013-07-09 12:51:00,83.3,74.5,29.97,SW,232,0.0,0.0,75,0.00,,,0.00,Wunderground v.1.15,2013-07-09 16:51:00,
2013-07-09 12:56:00,82.9,72.9,29.97,South,180,1.0,3.0,72,0.00,,,0.00,Wunderground v.1.15,2013-07-09 16:56:00,
2013-07-09 13:02:00,82.7,74.0,29.97,South,180,1.0,1.0,75,0.00,,,0.00,Wunderground v.1.15,2013-07-09 17:02:00,
2013-07-09 13:08:00,82.9,74.2,29.97,South,180,0.0,1.0,75,0.00,,,0.00,Wunderground v.1.15,2013-07-09 17:08:00,
2013-07-09 13:14:00,83.2,74.4,29.96,South,180,0.0,0.0,75,0.00,,,0.00,Wunderground v.1.15,2013-07-09 17:14:00,
2013-07-09 13:20:00,83.2,73.2,29.96,South,180,1.0,1.0,72,0.00,,,0.00,Wunderground v.1.15,2013-07-09 17:20:00,
2013-07-09 13:25:00,83.5,74.3,29.96,SSE,164,1.0,3.0,74,0.00,,,0.00,Wunderground v.1.15,2013-07-09 17:25:00,
2013-07-09 13:31:00,83.1,72.7,29.96,SE,138,1.0,1.0,71,0.00,,,0.00,Wunderground v.1.15,2013-07-09 17:31:00,
2013-07-09 13:36:00,83.0,72.6,29.96,SSE,150,1.0,2.0,71,0.00,,,0.00,Wunderground v.1.15,2013-07-09 17:36:00,
2013-07-09 13:42:00,83.5,75.1,29.96,SSE,150,0.0,0.0,76,0.00,,,0.00,Wunderground v.1.15,2013-07-09 17:42:00,
2013-07-09 13:47:00,83.7,73.3,29.96,SSE,150,0.0,1.0,71,0.00,,,0.00,Wunderground v.1.15,2013-07-09 17:47:00,
2013-07-09 13:53:00,83.8,73.8,29.96,SSE,154,0.0,2.0,72,0.00,,,0.00,Wunderground v.1.15,2013-07-09 17:53:00,
2013-07-09 13:58:00,83.6,72.8,29.96,SSE,155,0.0,2.0,70,0.00,,,0.00,Wunderground v.1.15,2013-07-09 17:58:00,
2013-07-09 14:04:00,84.1,74.5,29.96,SSE,155,0.0,0.0,73,0.00,,,0.00,Wunderground v.1.15,2013-07-09 18:04:00,
2013-07-09 14:10:00,84.6,74.2,29.96,SSE,165,0.0,2.0,71,0.00,,,0.00,Wunderground v.1.15,2013-07-09 18:10:00,
2013-07-09 14:16:00,84.0,73.2,29.96,SSE,165,0.0,2.0,70,0.00,,,0.00,Wunderground v.1.15,2013-07-09 18:16:00,
2013-07-09 14:21:00,83.8,74.6,29.95,SSE,164,0.0,0.0,74,0.00,,,0.00,Wunderground v.1.15,2013-07-09 18:21:00,
2013-07-09 14:27:00,83.8,74.2,29.95,SSE,164,0.0,0.0,73,0.00,,,0.00,Wunderground v.1.15,2013-07-09 18:27:00,
2013-07-09 14:32:00,83.9,73.1,29.95,SSE,164,0.0,0.0,70,0.00,,,0.00,Wunderground v.1.15,2013-07-09 18:32:00,
2013-07-09 14:38:00,84.3,73.9,29.95,SSE,165,0.0,0.0,71,0.00,,,0.00,Wunderground v.1.15,2013-07-09 18:38:00,
2013-07-09 14:43:00,84.4,74.4,29.94,SSE,158,0.0,0.0,72,0.00,,,0.00,Wunderground v.1.15,2013-07-09 18:43:00,
2013-07-09 14:49:00,84.7,75.5,29.94,SSE,158,0.0,0.0,74,0.00,,,0.00,Wunderground v.1.15,2013-07-09 18:49:00,
2013-07-09 14:54:00,84.8,74.8,29.94,SE,135,0.0,2.0,72,0.00,,,0.00,Wunderground v.1.15,2013-07-09 18:54:00,
2013-07-09 15:00:00,84.6,75.0,29.94,SE,135,0.0,0.0,73,0.00,,,0.00,Wunderground v.1.15,2013-07-09 19:00:00,
2013-07-09 15:05:00,84.5,74.9,29.93,SSE,161,0.0,5.0,73,0.00,,,0.00,Wunderground v.1.15,2013-07-09 19:05:00,
2013-07-09 15:11:00,84.2,73.8,29.94,South,182,1.0,1.0,71,0.00,,,0.00,Wunderground v.1.15,2013-07-09 19:11:00,
2013-07-09 15:16:00,84.1,73.7,29.94,South,169,1.0,1.0,71,0.00,,,0.00,Wunderground v.1.15,2013-07-09 19:16:00,
2013-07-09 15:22:00,84.3,73.9,29.94,South,180,1.0,4.0,71,0.00,,,0.00,Wunderground v.1.15,2013-07-09 19:22:00,
2013-07-09 15:28:00,84.7,74.3,29.93,South,177,1.0,4.0,71,0.00,,,0.00,Wunderground v.1.15,2013-07-09 19:28:00,
2013-07-09 15:33:00,84.9,73.6,29.93,South,180,1.0,4.0,69,0.00,,,0.00,Wunderground v.1.15,2013-07-09 19:33:00,
2013-07-09 15:39:00,85.0,71.9,29.93,South,185,2.0,4.0,65,0.00,,,0.00,Wunderground v.1.15,2013-07-09 19:39:00,
2013-07-09 15:45:00,85.3,73.5,29.93,SSE,150,1.0,2.0,68,0.00,,,0.00,Wunderground v.1.15,2013-07-09 19:45:00,
2013-07-09 15:51:00,85.2,72.6,29.93,SSE,150,1.0,1.0,66,0.00,,,0.00,Wunderground v.1.15,2013-07-09 19:51:00,
2013-07-09 15:56:00,85.8,75.7,29.93,SSE,150,0.0,2.0,72,0.00,,,0.00,Wunderground v.1.15,2013-07-09 19:56:00,
2013-07-09 16:02:00,85.6,72.0,29.93,SSE,156,1.0,4.0,64,0.00,,,0.00,Wunderground v.1.15,2013-07-09 20:02:00,
2013-07-09 16:08:00,85.3,72.6,29.93,SW,214,1.0,5.0,66,0.00,,,0.00,Wunderground v.1.15,2013-07-09 20:08:00,
2013-07-09 16:13:00,85.2,73.0,29.93,SSW,198,1.0,3.0,67,0.00,,,0.00,Wunderground v.1.15,2013-07-09 20:13:00,
2013-07-09 16:19:00,85.0,72.4,29.93,SSW,202,1.0,3.0,66,0.00,,,0.00,Wunderground v.1.15,2013-07-09 20:19:00,
2013-07-09 16:24:00,85.1,72.9,29.93,SSW,202,1.0,1.0,67,0.00,,,0.00,Wunderground v.1.15,2013-07-09 20:24:00,
2013-07-09 16:29:00,84.9,72.3,29.93,SSW,193,0.0,4.0,66,0.00,,,0.00,Wunderground v.1.15,2013-07-09 20:29:00,
2013-07-09 16:35:00,84.7,72.5,29.92,SSW,193,0.0,2.0,67,0.00,,,0.00,Wunderground v.1.15,2013-07-09 20:35:00,
2013-07-09 16:40:00,84.8,73.5,29.92,South,189,0.0,2.0,69,0.00,,,0.00,Wunderground v.1.15,2013-07-09 20:40:00,
2013-07-09 16:46:00,84.7,73.0,29.92,South,189,0.0,2.0,68,0.00,,,0.00,Wunderground v.1.15,2013-07-09 20:46:00,
2013-07-09 16:52:00,84.3,73.0,29.92,South,189,0.0,0.0,69,0.00,,,0.00,Wunderground v.1.15,2013-07-09 20:52:00,
2013-07-09 16:58:00,84.2,73.3,29.91,South,189,0.0,0.0,70,0.00,,,0.00,Wunderground v.1.15,2013-07-09 20:58:00,
2013-07-09 17:04:00,84.1,74.1,29.91,South,189,0.0,0.0,72,0.00,,,0.00,Wunderground v.1.15,2013-07-09 21:04:00,
2013-07-09 17:10:00,84.1,73.3,29.91,South,189,0.0,0.0,70,0.00,,,0.00,Wunderground v.1.15,2013-07-09 21:10:00,
2013-07-09 17:15:00,84.2,72.9,29.91,South,189,0.0,2.0,69,0.00,,,0.00,Wunderground v.1.15,2013-07-09 21:15:00,
2013-07-09 17:21:00,84.2,73.8,29.91,SSE,162,1.0,1.0,71,0.00,,,0.00,Wunderground v.1.15,2013-07-09 21:21:00,
2013-07-09 17:27:00,83.8,73.0,29.92,SSE,162,1.0,2.0,70,0.00,,,0.00,Wunderground v.1.15,2013-07-09 21:27:00,
2013-07-09 17:32:00,83.7,74.1,29.92,SSE,162,1.0,1.0,73,0.00,,,0.00,Wunderground v.1.15,2013-07-09 21:32:00,
2013-07-09 17:37:00,83.8,73.8,29.91,SSE,159,1.0,2.0,72,0.00,,,0.00,Wunderground v.1.15,2013-07-09 21:37:00,
2013-07-09 17:43:00,83.8,73.8,29.91,SE,143,1.0,4.0,72,0.00,,,0.00,Wunderground v.1.15,2013-07-09 21:43:00,
2013-07-09 17:48:00,83.8,75.0,29.91,SE,125,2.0,4.0,75,0.00,,,0.00,Wunderground v.1.15,2013-07-09 21:48:00,
2013-07-09 17:54:00,83.4,75.0,29.91,SE,131,2.0,6.0,76,0.00,,,0.00,Wunderground v.1.15,2013-07-09 21:54:00,
2013-07-09 18:00:00,82.1,72.6,29.90,ESE,106,4.0,4.0,73,0.00,,,0.00,Wunderground v.1.15,2013-07-09 22:00:00,
2013-07-09 18:05:00,80.9,72.2,29.91,ESE,114,5.0,8.0,75,0.00,,,0.00,Wunderground v.1.15,2013-07-09 22:05:00,
2013-07-09 18:11:00,80.1,72.2,29.92,SSE,153,3.0,4.0,77,0.00,,,0.00,Wunderground v.1.15,2013-07-09 22:11:00,
2013-07-09 18:16:00,79.8,72.3,29.92,SE,128,2.0,7.0,78,0.00,,,0.00,Wunderground v.1.15,2013-07-09 22:16:00,
2013-07-09 18:22:00,79.4,72.3,29.92,SE,144,2.0,3.0,79,0.00,,,0.00,Wunderground v.1.15,2013-07-09 22:22:00,
2013-07-09 18:27:00,79.4,72.7,29.92,SE,145,3.0,4.0,80,0.00,,,0.00,Wunderground v.1.15,2013-07-09 22:27:00,
2013-07-09 18:33:00,79.3,73.0,29.92,ESE,110,2.0,2.0,81,0.00,,,0.00,Wunderground v.1.15,2013-07-09 22:33:00,
2013-07-09 18:36:00,79.1,72.4,29.92,ESE,123,2.0,8.0,80,0.00,,,0.00,Wunderground v.1.15,2013-07-09 22:36:00,
2013-07-09 18:41:00,78.7,72.4,29.92,ESE,114,3.0,3.0,81,0.00,,,0.00,Wunderground v.1.15,2013-07-09 22:41:00,
2013-07-09 18:47:00,78.3,71.2,29.92,ESE,111,4.0,9.0,79,0.00,,,0.00,Wunderground v.1.15,2013-07-09 22:47:00,
2013-07-09 18:53:00,77.9,70.1,29.92,ESE,118,5.0,10.0,77,0.00,,,0.00,Wunderground v.1.15,2013-07-09 22:53:00,
2013-07-09 18:58:00,77.6,70.2,29.92,ESE,121,4.0,10.0,78,0.00,,,0.00,Wunderground v.1.15,2013-07-09 22:58:00,
2013-07-09 19:03:00,77.5,70.8,29.92,ESE,119,1.0,3.0,80,0.00,,,0.00,Wunderground v.1.15,2013-07-09 23:03:00,
2013-07-09 19:09:00,77.2,70.5,29.92,ESE,111,0.0,3.0,80,0.00,,,0.00,Wunderground v.1.15,2013-07-09 23:09:00,
2013-07-09 19:14:00,77.0,70.7,29.92,ESE,111,1.0,3.0,81,0.00,,,0.00,Wunderground v.1.15,2013-07-09 23:14:00,
2013-07-09 19:17:00,76.8,70.9,29.92,ESE,113,1.0,3.0,82,0.00,,,0.00,Wunderground v.1.15,2013-07-09 23:17:00,
2013-07-09 19:23:00,76.6,71.0,29.91,ESE,103,1.0,1.0,83,0.00,,,0.00,Wunderground v.1.15,2013-07-09 23:23:00,
2013-07-09 19:28:00,76.5,71.3,29.92,ESE,103,0.0,1.0,84,0.00,,,0.00,Wunderground v.1.15,2013-07-09 23:28:00,
2013-07-09 19:34:00,76.2,71.4,29.92,ENE,67,0.0,2.0,85,0.00,,,0.00,Wunderground v.1.15,2013-07-09 23:34:00,
2013-07-09 19:40:00,75.9,71.4,29.91,ENE,78,0.0,0.0,86,0.00,,,0.00,Wunderground v.1.15,2013-07-09 23:40:00,
2013-07-09 19:45:00,75.7,71.2,29.91,North,5,0.0,0.0,86,0.00,,,0.00,Wunderground v.1.15,2013-07-09 23:45:00,
2013-07-09 19:51:00,75.6,71.5,29.91,East,94,0.0,2.0,87,0.00,,,0.00,Wunderground v.1.15,2013-07-09 23:51:00,
2013-07-09 19:56:00,75.5,71.4,29.91,East,93,1.0,2.0,87,0.00,,,0.00,Wunderground v.1.15,2013-07-09 23:56:00,
2013-07-09 20:02:00,75.3,71.5,29.91,East,92,1.0,1.0,88,0.00,,,0.00,Wunderground v.1.15,2013-07-10 00:02:00,
2013-07-09 20:08:00,75.1,71.6,29.91,East,92,0.0,1.0,89,0.00,,,0.00,Wunderground v.1.15,2013-07-10 00:08:00,
2013-07-09 20:13:00,74.9,71.8,29.91,East,92,0.0,0.0,90,0.00,,,0.00,Wunderground v.1.15,2013-07-10 00:13:00,
2013-07-09 20:19:00,74.6,71.5,29.91,East,92,0.0,0.0,90,0.00,,,0.00,Wunderground v.1.15,2013-07-10 00:19:00,
2013-07-09 20:24:00,74.4,71.6,29.91,East,92,0.0,0.0,91,0.00,,,0.00,Wunderground v.1.15,2013-07-10 00:24:00,
2013-07-09 20:30:00,74.2,71.7,29.91,East,92,0.0,0.0,92,0.00,,,0.00,Wunderground v.1.15,2013-07-10 00:30:00,
2013-07-09 20:35:00,74.0,71.5,29.91,East,92,0.0,0.0,92,0.00,,,0.00,Wunderground v.1.15,2013-07-10 00:35:00,
2013-07-09 20:41:00,73.9,71.4,29.91,East,92,0.0,0.0,92,0.00,,,0.00,Wunderground v.1.15,2013-07-10 00:41:00,
2013-07-09 20:46:00,73.7,71.2,29.91,East,92,0.0,0.0,92,0.00,,,0.00,Wunderground v.1.15,2013-07-10 00:46:00,
2013-07-09 20:51:00,73.7,71.5,29.91,East,92,0.0,0.0,93,0.00,,,0.00,Wunderground v.1.15,2013-07-10 00:51:00,
2013-07-09 20:57:00,73.7,71.5,29.91,East,92,0.0,0.0,93,0.00,,,0.00,Wunderground v.1.15,2013-07-10 00:57:00,
2013-07-09 21:03:00,73.6,71.4,29.92,East,92,0.0,0.0,93,0.00,,,0.00,Wunderground v.1.15,2013-07-10 01:03:00,
2013-07-09 21:09:00,73.5,71.4,29.92,East,92,0.0,0.0,93,0.00,,,0.00,Wunderground v.1.15,2013-07-10 01:09:00,
2013-07-09 21:15:00,73.4,71.3,29.92,East,92,0.0,0.0,93,0.00,,,0.00,Wunderground v.1.15,2013-07-10 01:15:00,
2013-07-09 21:20:00,73.2,71.1,29.92,East,92,0.0,0.0,93,0.00,,,0.00,Wunderground v.1.15,2013-07-10 01:20:00,
2013-07-09 21:26:00,73.0,71.2,29.92,East,92,0.0,0.0,94,0.00,,,0.00,Wunderground v.1.15,2013-07-10 01:26:00,
2013-07-09 21:31:00,72.8,71.0,29.92,East,92,0.0,0.0,94,0.00,,,0.00,Wunderground v.1.15,2013-07-10 01:31:00,
2013-07-09 21:37:00,72.7,70.9,29.93,East,92,0.0,0.0,94,0.00,,,0.00,Wunderground v.1.15,2013-07-10 01:37:00,
2013-07-09 21:43:00,72.6,70.8,29.93,East,86,0.0,1.0,94,0.00,,,0.00,Wunderground v.1.15,2013-07-10 01:43:00,
2013-07-09 21:49:00,72.5,70.7,29.94,East,98,1.0,2.0,94,0.00,,,0.00,Wunderground v.1.15,2013-07-10 01:49:00,
2013-07-09 21:55:00,72.4,70.6,29.94,ESE,103,2.0,3.0,94,0.00,,,0.00,Wunderground v.1.15,2013-07-10 01:55:00,
2013-07-09 22:00:00,72.4,70.6,29.93,East,86,2.0,2.0,94,0.00,,,0.00,Wunderground v.1.15,2013-07-10 02:00:00,
2013-07-09 22:06:00,72.3,70.5,29.94,East,96,2.0,5.0,94,0.00,,,0.00,Wunderground v.1.15,2013-07-10 02:06:00,
2013-07-09 22:11:00,72.3,70.5,29.93,East,98,2.0,5.0,94,0.00,,,0.00,Wunderground v.1.15,2013-07-10 02:11:00,
2013-07-09 22:17:00,72.3,70.5,29.93,East,94,2.0,5.0,94,0.00,,,0.00,Wunderground v.1.15,2013-07-10 02:17:00,
2013-07-09 22:22:00,72.2,70.4,29.93,ESE,103,2.0,3.0,94,0.00,,,0.00,Wunderground v.1.15,2013-07-10 02:22:00,
2013-07-09 22:28:00,72.2,70.4,29.93,East,88,2.0,5.0,94,0.00,,,0.00,Wunderground v.1.15,2013-07-10 02:28:00,
2013-07-09 22:34:00,72.3,70.5,29.93,East,98,2.0,5.0,94,0.00,,,0.00,Wunderground v.1.15,2013-07-10 02:34:00,
2013-07-09 22:39:00,72.4,70.6,29.93,ESE,111,1.0,5.0,94,0.00,,,0.00,Wunderground v.1.15,2013-07-10 02:39:00,
2013-07-09 22:45:00,72.4,70.6,29.93,SE,130,1.0,3.0,94,0.00,,,0.00,Wunderground v.1.15,2013-07-10 02:45:00,
2013-07-09 22:50:00,72.5,70.7,29.93,ESE,120,1.0,1.0,94,0.00,,,0.00,Wunderground v.1.15,2013-07-10 02:50:00,
2013-07-09 22:55:00,72.4,70.6,29.93,ESE,120,1.0,1.0,94,0.00,,,0.00,Wunderground v.1.15,2013-07-10 02:55:00,
2013-07-09 23:01:00,72.4,70.6,29.93,ESE,115,1.0,4.0,94,0.00,,,0.00,Wunderground v.1.15,2013-07-10 03:01:00,
2013-07-09 23:07:00,72.5,70.7,29.94,ESE,120,2.0,4.0,94,0.00,,,0.00,Wunderground v.1.15,2013-07-10 03:07:00,
2013-07-09 23:12:00,72.5,70.7,29.94,ESE,120,1.0,2.0,94,0.00,,,0.00,Wunderground v.1.15,2013-07-10 03:12:00,
2013-07-09 23:18:00,72.6,70.8,29.93,SE,126,1.0,3.0,94,0.00,,,0.00,Wunderground v.1.15,2013-07-10 03:18:00,
2013-07-09 23:24:00,72.6,70.8,29.93,SE,129,1.0,4.0,94,0.00,,,0.00,Wunderground v.1.15,2013-07-10 03:24:00,
2013-07-09 23:29:00,72.6,70.8,29.93,SE,127,1.0,4.0,94,0.00,,,0.00,Wunderground v.1.15,2013-07-10 03:29:00,
2013-07-09 23:35:00,72.7,70.9,29.93,ESE,112,1.0,4.0,94,0.00,,,0.00,Wunderground v.1.15,2013-07-10 03:35:00,
2013-07-09 23:40:00,72.6,70.8,29.93,ESE,112,1.0,1.0,94,0.00,,,0.00,Wunderground v.1.15,2013-07-10 03:40:00,
2013-07-09 23:46:00,72.6,70.8,29.93,ESE,112,0.0,1.0,94,0.00,,,0.00,Wunderground v.1.15,2013-07-10 03:46:00,
2013-07-09 23:51:00,72.4,70.6,29.93,ESE,112,0.0,0.0,94,0.00,,,0.00,Wunderground v.1.15,2013-07-10 03:51:00,
2013-07-09 23:57:00,72.2,70.7,29.93,ESE,112,0.0,0.0,95,0.00,,,0.00,Wunderground v.1.15,2013-07-10 03:57:00,